Terminal Aerodrome Forecast
Issued by NWS

Home | Current Version | Previous Version | Text Only | Print | Product List | Glossary On
Versions: 1 2 3 4 5 6 7 8 9 10 11 12 13 14 15 16 17 18 19 20 21 22
000
FTUS43 KDLH 211100 RRA
TAFHIB
TAF
KHIB 211141Z 2112/2212 29006KT P6SM VCSH BKN080 BKN110
     FM211500 30012G18KT P6SM BKN025
     FM211700 31014G22KT P6SM BKN035
     FM212300 33014G21KT P6SM SCT035
     FM220200 32008KT P6SM SKC=

USA.gov is the U.S. government's official web portal to all federal, state and local government web resources and services.